Time,TemperatureF,DewpointF,PressureIn,WindDirection,WindDirectionDegrees,WindSpeedMPH,WindSpeedGustMPH,Humidity,HourlyPrecipIn,Conditions,Clouds,dailyrainin,SoftwareType,DateUTC
2013-01-19 00:00:00,32.9,21.3,30.01,WSW,248,2.0,2.5,62,0.00,,,0.00,WUHU216HW,2013-01-19 05:00:00,
2013-01-19 00:01:00,32.9,21.3,30.01,WSW,248,2.0,2.5,62,0.00,,,0.00,WUHU216HW,2013-01-19 05:01:00,
2013-01-19 00:02:00,32.9,21.3,30.01,SW,225,1.1,2.5,62,0.00,,,0.00,WUHU216HW,2013-01-19 05:02:00,
2013-01-19 00:07:00,32.9,21.3,30.01,NNW,338,1.1,2.7,62,0.00,,,0.00,WUHU216HW,2013-01-19 05:07:00,
2013-01-19 00:12:00,32.9,21.3,30.00,WSW,248,1.6,2.7,62,0.00,,,0.00,WUHU216HW,2013-01-19 05:12:00,
2013-01-19 00:17:00,33.1,21.5,30.00,WNW,293,2.2,2.2,62,0.00,,,0.00,WUHU216HW,2013-01-19 05:17:00,
2013-01-19 00:22:00,33.1,21.5,30.00,West,270,1.1,2.5,62,0.00,,,0.00,WUHU216HW,2013-01-19 05:22:00,
2013-01-19 00:27:00,33.1,21.5,30.00,North,0,1.3,2.7,62,0.00,,,0.00,WUHU216HW,2013-01-19 05:27:00,
2013-01-19 00:32:00,33.1,21.5,30.00,West,270,1.1,2.7,62,0.00,,,0.00,WUHU216HW,2013-01-19 05:32:00,
2013-01-19 00:37:00,33.1,21.5,30.00,ENE,68,2.0,2.5,62,0.00,,,0.00,WUHU216HW,2013-01-19 05:37:00,
2013-01-19 00:42:00,33.1,21.5,29.99,WSW,248,1.1,2.0,62,0.00,,,0.00,WUHU216HW,2013-01-19 05:42:00,
2013-01-19 00:47:00,33.1,21.5,29.99,WSW,248,1.1,1.8,62,0.00,,,0.00,WUHU216HW,2013-01-19 05:47:00,
2013-01-19 00:52:00,32.9,21.7,29.99,WSW,248,1.3,2.2,63,0.00,,,0.00,WUHU216HW,2013-01-19 05:52:00,
2013-01-19 00:57:00,32.9,21.7,29.98,West,270,2.0,2.2,63,0.00,,,0.00,WUHU216HW,2013-01-19 05:57:00,
2013-01-19 01:02:00,33.1,21.9,29.98,WSW,248,1.8,2.5,63,0.00,,,0.00,WUHU216HW,2013-01-19 06:02:00,
2013-01-19 01:07:00,33.1,21.9,29.98,ENE,68,0.4,2.5,63,0.00,,,0.00,WUHU216HW,2013-01-19 06:07:00,
2013-01-19 01:12:00,33.1,21.9,29.98,West,270,0.9,1.8,63,0.00,,,0.00,WUHU216HW,2013-01-19 06:12:00,
2013-01-19 01:17:00,33.1,21.9,29.98,NW,315,1.1,1.8,63,0.00,,,0.00,WUHU216HW,2013-01-19 06:17:00,
2013-01-19 01:22:00,33.1,21.9,29.98,NNW,338,1.1,1.6,63,0.00,,,0.00,WUHU216HW,2013-01-19 06:22:00,
2013-01-19 01:27:00,33.1,21.9,29.98,West,270,1.8,1.8,63,0.00,,,0.00,WUHU216HW,2013-01-19 06:27:00,
2013-01-19 01:32:00,33.1,21.5,29.98,NW,315,1.1,1.8,62,0.00,,,0.00,WUHU216HW,2013-01-19 06:32:00,
2013-01-19 01:37:00,33.1,21.9,29.98,NW,315,2.0,2.0,63,0.00,,,0.00,WUHU216HW,2013-01-19 06:37:00,
2013-01-19 01:42:00,33.1,21.9,29.97,WNW,293,1.3,2.0,63,0.00,,,0.00,WUHU216HW,2013-01-19 06:42:00,
2013-01-19 01:47:00,33.1,21.9,29.97,NW,315,0.9,1.3,63,0.00,,,0.00,WUHU216HW,2013-01-19 06:47:00,
2013-01-19 01:52:00,33.1,21.9,29.97,North,0,0.7,2.5,63,0.00,,,0.00,WUHU216HW,2013-01-19 06:52:00,
2013-01-19 01:57:00,33.1,21.9,29.97,SE,135,0.9,2.5,63,0.00,,,0.00,WUHU216HW,2013-01-19 06:57:00,
2013-01-19 02:02:00,33.3,22.1,29.97,WSW,248,2.5,2.5,63,0.00,,,0.00,WUHU216HW,2013-01-19 07:02:00,
2013-01-19 02:07:00,33.3,22.1,29.98,WSW,248,1.3,2.5,63,0.00,,,0.00,WUHU216HW,2013-01-19 07:07:00,
2013-01-19 02:12:00,33.3,22.1,29.98,North,0,2.5,2.5,63,0.00,,,0.00,WUHU216HW,2013-01-19 07:12:00,
2013-01-19 02:17:00,33.3,22.1,29.98,North,0,2.5,2.5,63,0.00,,,0.00,WUHU216HW,2013-01-19 07:17:00,
2013-01-19 02:41:00,33.8,22.1,29.97,NNW,338,0.7,0.7,62,0.00,,,0.00,WUHU216HW,2013-01-19 07:41:00,
2013-01-19 02:46:00,33.8,22.1,29.97,South,180,0.2,2.5,62,0.00,,,0.00,WUHU216HW,2013-01-19 07:46:00,
2013-01-19 02:51:00,34.0,22.3,29.97,SE,135,1.3,2.5,62,0.00,,,0.00,WUHU216HW,2013-01-19 07:51:00,
2013-01-19 02:56:00,34.0,22.3,29.97,NW,315,0.7,1.8,62,0.00,,,0.00,WUHU216HW,2013-01-19 07:56:00,
2013-01-19 03:01:00,34.2,22.5,29.97,West,270,1.1,2.2,62,0.00,,,0.00,WUHU216HW,2013-01-19 08:01:00,
2013-01-19 03:06:00,34.4,22.7,29.97,NW,315,1.1,2.2,62,0.00,,,0.00,WUHU216HW,2013-01-19 08:06:00,
2013-01-19 03:11:00,34.6,22.9,29.97,WSW,248,3.1,3.1,62,0.00,,,0.00,WUHU216HW,2013-01-19 08:11:00,
2013-01-19 03:16:00,34.9,23.2,29.97,WNW,293,0.9,3.1,62,0.00,,,0.00,WUHU216HW,2013-01-19 08:16:00,
2013-01-19 03:21:00,34.9,23.2,29.97,North,0,2.5,2.5,62,0.00,,,0.00,WUHU216HW,2013-01-19 08:21:00,
2013-01-19 03:26:00,34.9,23.2,29.97,SW,225,0.4,2.5,62,0.00,,,0.00,WUHU216HW,2013-01-19 08:26:00,
2013-01-19 03:31:00,34.9,23.2,29.97,West,270,1.3,2.5,62,0.00,,,0.00,WUHU216HW,2013-01-19 08:31:00,
2013-01-19 03:36:00,34.9,23.2,29.97,West,270,0.4,2.0,62,0.00,,,0.00,WUHU216HW,2013-01-19 08:36:00,
2013-01-19 03:41:00,35.1,23.4,29.97,NW,315,1.8,3.1,62,0.00,,,0.00,WUHU216HW,2013-01-19 08:41:00,
2013-01-19 03:46:00,35.1,23.4,29.97,West,270,1.1,3.1,62,0.00,,,0.00,WUHU216HW,2013-01-19 08:46:00,
2013-01-19 03:51:00,34.9,23.2,29.97,West,270,1.8,2.5,62,0.00,,,0.00,WUHU216HW,2013-01-19 08:51:00,
2013-01-19 03:56:00,34.9,23.2,29.97,NNW,338,2.2,2.2,62,0.00,,,0.00,WUHU216HW,2013-01-19 08:56:00,
2013-01-19 04:01:00,35.1,23.4,29.97,North,0,1.6,2.2,62,0.00,,,0.00,WUHU216HW,2013-01-19 09:01:00,
2013-01-19 04:06:00,35.1,23.4,29.97,WNW,293,1.1,2.7,62,0.00,,,0.00,WUHU216HW,2013-01-19 09:06:00,
2013-01-19 04:11:00,35.1,23.4,29.96,WSW,248,1.1,2.7,62,0.00,,,0.00,WUHU216HW,2013-01-19 09:11:00,
2013-01-19 04:16:00,35.1,23.4,29.96,West,270,1.8,1.8,62,0.00,,,0.00,WUHU216HW,2013-01-19 09:16:00,
2013-01-19 04:21:00,35.3,23.6,29.96,WSW,248,1.1,1.8,62,0.00,,,0.00,WUHU216HW,2013-01-19 09:21:00,
2013-01-19 04:26:00,35.1,23.4,29.96,WSW,248,0.4,1.8,62,0.00,,,0.00,WUHU216HW,2013-01-19 09:26:00,
2013-01-19 04:31:00,35.1,23.4,29.96,WNW,293,0.7,1.8,62,0.00,,,0.00,WUHU216HW,2013-01-19 09:31:00,
2013-01-19 04:36:00,34.9,23.2,29.96,NNW,338,0.4,1.6,62,0.00,,,0.00,WUHU216HW,2013-01-19 09:36:00,
2013-01-19 04:41:00,34.9,23.2,29.96,NW,315,0.4,1.6,62,0.00,,,0.00,WUHU216HW,2013-01-19 09:41:00,
2013-01-19 04:46:00,34.9,23.2,29.96,NNW,338,1.1,2.5,62,0.00,,,0.00,WUHU216HW,2013-01-19 09:46:00,
2013-01-19 04:51:00,34.9,23.2,29.96,NNW,338,2.5,2.5,62,0.00,,,0.00,WUHU216HW,2013-01-19 09:51:00,
2013-01-19 04:57:00,35.1,23.4,29.96,SE,135,2.0,3.1,62,0.00,,,0.00,WUHU216HW,2013-01-19 09:57:00,
2013-01-19 05:01:00,35.1,23.4,29.96,West,270,1.1,3.1,62,0.00,,,0.00,WUHU216HW,2013-01-19 10:01:00,
2013-01-19 05:07:00,35.1,23.4,29.96,West,270,1.8,2.5,62,0.00,,,0.00,WUHU216HW,2013-01-19 10:07:00,
2013-01-19 05:12:00,35.1,23.4,29.96,NW,315,0.9,3.8,62,0.00,,,0.00,WUHU216HW,2013-01-19 10:12:00,
2013-01-19 05:17:00,35.1,23.4,29.96,WNW,293,0.4,1.8,62,0.00,,,0.00,WUHU216HW,2013-01-19 10:17:00,
2013-01-19 05:22:00,35.1,23.8,29.95,NW,315,1.1,1.8,63,0.00,,,0.00,WUHU216HW,2013-01-19 10:22:00,
2013-01-19 05:27:00,34.9,23.6,29.95,NNW,338,0.7,3.4,63,0.00,,,0.00,WUHU216HW,2013-01-19 10:27:00,
2013-01-19 05:32:00,34.9,23.6,29.96,NW,315,0.4,3.4,63,0.00,,,0.00,WUHU216HW,2013-01-19 10:32:00,
2013-01-19 05:37:00,34.9,23.6,29.96,WNW,293,0.2,2.5,63,0.00,,,0.00,WUHU216HW,2013-01-19 10:37:00,
2013-01-19 05:42:00,34.9,23.6,29.96,North,0,1.1,2.2,63,0.00,,,0.00,WUHU216HW,2013-01-19 10:42:00,
2013-01-19 05:47:00,34.9,23.6,29.96,SW,225,1.6,2.2,63,0.00,,,0.00,WUHU216HW,2013-01-19 10:47:00,
2013-01-19 05:52:00,34.9,23.6,29.96,WNW,293,0.9,2.2,63,0.00,,,0.00,WUHU216HW,2013-01-19 10:52:00,
2013-01-19 05:57:00,34.9,23.6,29.96,WSW,248,1.6,2.2,63,0.00,,,0.00,WUHU216HW,2013-01-19 10:57:00,
2013-01-19 06:02:00,34.9,23.6,29.96,NW,315,1.1,2.2,63,0.00,,,0.00,WUHU216HW,2013-01-19 11:02:00,
2013-01-19 06:07:00,34.7,23.4,29.96,NW,315,1.1,2.7,63,0.00,,,0.00,WUHU216HW,2013-01-19 11:07:00,
2013-01-19 06:12:00,34.6,23.6,29.96,WSW,248,0.4,2.7,64,0.00,,,0.00,WUHU216HW,2013-01-19 11:12:00,
2013-01-19 06:15:00,34.6,23.6,29.96,WSW,248,0.7,1.6,64,0.00,,,0.00,WUHU216HW,2013-01-19 11:15:00,
2013-01-19 06:16:00,34.6,23.6,29.96,NW,315,0.4,1.3,64,0.00,,,0.00,WUHU216HW,2013-01-19 11:16:00,
2013-01-19 06:18:00,34.6,23.6,29.96,WNW,293,1.1,1.3,64,0.00,,,0.00,WUHU216HW,2013-01-19 11:18:00,
2013-01-19 06:19:00,34.6,23.6,29.96,North,0,0.9,1.3,64,0.00,,,0.00,WUHU216HW,2013-01-19 11:19:00,
2013-01-19 06:21:00,34.6,23.6,29.96,North,0,0.9,1.3,64,0.00,,,0.00,WUHU216HW,2013-01-19 11:21:00,
2013-01-19 06:22:00,34.6,23.6,29.96,NNE,23,1.3,1.3,64,0.00,,,0.00,WUHU216HW,2013-01-19 11:22:00,
2013-01-19 06:23:00,34.6,23.6,29.96,WSW,248,0.9,1.3,64,0.00,,,0.00,WUHU216HW,2013-01-19 11:23:00,
2013-01-19 06:25:00,34.6,23.6,29.96,NW,315,1.1,1.3,64,0.00,,,0.00,WUHU216HW,2013-01-19 11:25:00,
2013-01-19 06:26:00,34.6,23.6,29.96,WSW,248,1.1,1.3,64,0.00,,,0.00,WUHU216HW,2013-01-19 11:26:00,
2013-01-19 06:28:00,34.6,23.6,29.96,West,270,0.4,1.3,64,0.00,,,0.00,WUHU216HW,2013-01-19 11:28:00,
2013-01-19 06:29:00,34.6,23.6,29.96,WSW,248,1.6,1.6,64,0.00,,,0.00,WUHU216HW,2013-01-19 11:29:00,
2013-01-19 06:31:00,34.6,23.6,29.96,WSW,248,2.0,2.0,64,0.00,,,0.00,WUHU216HW,2013-01-19 11:31:00,
2013-01-19 06:32:00,34.6,23.6,29.96,WSW,248,1.6,2.0,64,0.00,,,0.00,WUHU216HW,2013-01-19 11:32:00,
2013-01-19 06:34:00,34.6,23.6,29.96,WSW,248,1.6,2.0,64,0.00,,,0.00,WUHU216HW,2013-01-19 11:34:00,
2013-01-19 06:35:00,34.6,23.6,29.96,NNW,338,0.4,2.0,64,0.00,,,0.00,WUHU216HW,2013-01-19 11:35:00,
2013-01-19 06:37:00,34.7,23.8,29.96,West,270,1.8,2.0,64,0.00,,,0.00,WUHU216HW,2013-01-19 11:37:00,
2013-01-19 06:38:00,34.7,23.8,29.96,NW,315,1.8,2.0,64,0.00,,,0.00,WUHU216HW,2013-01-19 11:38:00,
2013-01-19 06:45:00,34.9,23.9,29.97,NW,315,1.1,1.8,64,0.00,,,0.00,WUHU216HW,2013-01-19 11:45:00,
2013-01-19 06:46:00,34.9,23.9,29.97,WSW,248,0.4,1.8,64,0.00,,,0.00,WUHU216HW,2013-01-19 11:46:00,
2013-01-19 06:49:00,34.9,23.9,29.97,West,270,0.4,1.8,64,0.00,,,0.00,WUHU216HW,2013-01-19 11:49:00,
2013-01-19 06:51:00,34.9,23.9,29.96,ESE,113,1.6,1.8,64,0.00,,,0.00,WUHU216HW,2013-01-19 11:51:00,
2013-01-19 06:52:00,34.9,24.3,29.96,SW,225,0.9,1.6,65,0.00,,,0.00,WUHU216HW,2013-01-19 11:52:00,
2013-01-19 06:54:00,34.9,24.3,29.96,NW,315,0.7,1.6,65,0.00,,,0.00,WUHU216HW,2013-01-19 11:54:00,
2013-01-19 06:55:00,34.9,23.9,29.96,NW,315,1.1,1.6,64,0.00,,,0.00,WUHU216HW,2013-01-19 11:55:00,
2013-01-19 06:57:00,34.9,24.3,29.96,NNW,338,1.1,2.2,65,0.00,,,0.00,WUHU216HW,2013-01-19 11:57:00,
2013-01-19 06:58:00,34.9,24.3,29.96,WSW,248,1.6,2.2,65,0.00,,,0.00,WUHU216HW,2013-01-19 11:58:00,
2013-01-19 07:00:00,34.9,24.3,29.96,West,270,1.1,2.2,65,0.00,,,0.00,WUHU216HW,2013-01-19 12:00:00,
2013-01-19 07:02:00,34.9,24.3,29.96,North,0,0.4,2.2,65,0.00,,,0.00,WUHU216HW,2013-01-19 12:02:00,
2013-01-19 07:03:00,34.9,24.3,29.96,ENE,68,1.1,2.2,65,0.00,,,0.00,WUHU216HW,2013-01-19 12:03:00,
2013-01-19 07:05:00,34.9,24.3,29.96,WSW,248,1.1,2.2,65,0.00,,,0.00,WUHU216HW,2013-01-19 12:05:00,
2013-01-19 07:06:00,34.9,24.3,29.96,SW,225,1.3,1.6,65,0.00,,,0.00,WUHU216HW,2013-01-19 12:06:00,
2013-01-19 07:07:00,34.9,24.3,29.96,SE,135,0.9,1.3,65,0.00,,,0.00,WUHU216HW,2013-01-19 12:07:00,
2013-01-19 07:37:00,34.7,24.1,29.96,WNW,293,1.1,1.1,65,0.00,,,0.00,WUHU216HW,2013-01-19 12:37:00,
2013-01-19 07:38:00,34.6,23.9,29.96,NW,315,1.3,1.3,65,0.00,,,0.00,WUHU216HW,2013-01-19 12:38:00,
2013-01-19 07:47:00,34.6,23.9,29.96,NW,315,1.1,1.8,65,0.00,,,0.00,WUHU216HW,2013-01-19 12:47:00,
2013-01-19 07:48:00,34.6,24.3,29.96,WSW,248,0.9,1.8,66,0.00,,,0.00,WUHU216HW,2013-01-19 12:48:00,
2013-01-19 07:53:00,34.6,24.3,29.96,West,270,0.4,2.5,66,0.00,,,0.00,WUHU216HW,2013-01-19 12:53:00,
2013-01-19 07:58:00,34.7,24.5,29.96,WSW,248,1.8,2.5,66,0.00,,,0.00,WUHU216HW,2013-01-19 12:58:00,
2013-01-19 08:03:00,34.7,24.5,29.96,North,0,1.1,2.7,66,0.00,,,0.00,WUHU216HW,2013-01-19 13:03:00,
2013-01-19 08:08:00,34.7,24.5,29.96,West,270,1.3,2.7,66,0.00,,,0.00,WUHU216HW,2013-01-19 13:08:00,
2013-01-19 08:13:00,34.7,24.5,29.96,WNW,293,1.6,2.7,66,0.00,,,0.00,WUHU216HW,2013-01-19 13:13:00,
2013-01-19 08:18:00,34.9,24.7,29.96,SW,225,0.4,2.5,66,0.00,,,0.00,WUHU216HW,2013-01-19 13:18:00,
2013-01-19 08:23:00,34.9,24.7,29.97,West,270,1.6,2.5,66,0.00,,,0.00,WUHU216HW,2013-01-19 13:23:00,
2013-01-19 08:28:00,35.1,24.8,29.97,NNW,338,2.2,2.2,66,0.00,,,0.00,WUHU216HW,2013-01-19 13:28:00,
2013-01-19 08:33:00,35.1,24.8,29.97,WNW,293,1.1,2.2,66,0.00,,,0.00,WUHU216HW,2013-01-19 13:33:00,
2013-01-19 08:38:00,35.5,25.2,29.98,NW,315,1.8,1.8,66,0.00,,,0.00,WUHU216HW,2013-01-19 13:38:00,
2013-01-19 08:43:00,35.8,25.6,29.98,NW,315,1.8,1.8,66,0.00,,,0.00,WUHU216HW,2013-01-19 13:43:00,
2013-01-19 08:48:00,36.0,25.4,29.98,WNW,293,1.8,2.5,65,0.00,,,0.00,WUHU216HW,2013-01-19 13:48:00,
2013-01-19 08:53:00,36.2,25.6,29.98,West,270,2.7,4.5,65,0.00,,,0.00,WUHU216HW,2013-01-19 13:53:00,
2013-01-19 08:58:00,36.2,25.6,29.97,WSW,248,1.8,4.5,65,0.00,,,0.00,WUHU216HW,2013-01-19 13:58:00,
2013-01-19 09:03:00,36.4,25.8,29.97,North,0,2.0,3.4,65,0.00,,,0.00,WUHU216HW,2013-01-19 14:03:00,
2013-01-19 09:08:00,36.4,25.8,29.98,NW,315,0.4,2.9,65,0.00,,,0.00,WUHU216HW,2013-01-19 14:08:00,
2013-01-19 09:13:00,36.4,25.8,29.98,South,180,1.3,2.5,65,0.00,,,0.00,WUHU216HW,2013-01-19 14:13:00,
2013-01-19 09:18:00,36.2,25.6,29.98,ESE,113,1.3,2.5,65,0.00,,,0.00,WUHU216HW,2013-01-19 14:18:00,
2013-01-19 09:23:00,36.2,25.6,29.98,WSW,248,0.7,2.5,65,0.00,,,0.00,WUHU216HW,2013-01-19 14:23:00,
2013-01-19 09:28:00,36.2,25.6,29.98,NW,315,1.1,3.4,65,0.00,,,0.00,WUHU216HW,2013-01-19 14:28:00,
2013-01-19 09:33:00,36.4,25.8,29.98,WNW,293,2.7,3.4,65,0.00,,,0.00,WUHU216HW,2013-01-19 14:33:00,
2013-01-19 09:38:00,36.9,26.2,29.98,NW,315,0.4,2.7,65,0.00,,,0.00,WUHU216HW,2013-01-19 14:38:00,
2013-01-19 09:43:00,37.6,26.6,29.98,North,0,2.0,3.4,64,0.00,,,0.00,WUHU216HW,2013-01-19 14:43:00,
2013-01-19 09:48:00,38.2,27.0,29.98,NW,315,5.6,5.6,64,0.00,,,0.00,WUHU216HW,2013-01-19 14:48:00,
2013-01-19 09:53:00,38.5,26.9,29.98,WNW,293,1.1,5.6,63,0.00,,,0.00,WUHU216HW,2013-01-19 14:53:00,
2013-01-19 09:58:00,38.9,27.3,29.98,West,270,1.1,4.3,63,0.00,,,0.00,WUHU216HW,2013-01-19 14:58:00,
2013-01-19 10:03:00,39.2,27.6,29.98,WSW,248,3.8,3.8,63,0.00,,,0.00,WUHU216HW,2013-01-19 15:03:00,
2013-01-19 10:08:00,39.4,27.4,29.98,WSW,248,1.8,3.8,62,0.00,,,0.00,WUHU216HW,2013-01-19 15:08:00,
2013-01-19 10:13:00,39.6,27.5,29.98,West,270,3.8,3.8,62,0.00,,,0.00,WUHU216HW,2013-01-19 15:13:00,
2013-01-19 10:18:00,39.6,27.5,29.98,WNW,293,2.2,5.6,62,0.00,,,0.00,WUHU216HW,2013-01-19 15:18:00,
2013-01-19 10:23:00,40.0,27.5,29.98,SW,225,1.8,5.6,61,0.00,,,0.00,WUHU216HW,2013-01-19 15:23:00,
2013-01-19 10:28:00,40.3,27.9,29.97,NW,315,2.9,3.4,61,0.00,,,0.00,WUHU216HW,2013-01-19 15:28:00,
2013-01-19 10:33:00,40.5,27.7,29.98,West,270,1.1,3.4,60,0.00,,,0.00,WUHU216HW,2013-01-19 15:33:00,
2013-01-19 10:38:00,40.7,27.9,29.97,NW,315,0.9,4.3,60,0.00,,,0.00,WUHU216HW,2013-01-19 15:38:00,
2013-01-19 10:43:00,40.9,28.1,29.97,WSW,248,1.8,4.3,60,0.00,,,0.00,WUHU216HW,2013-01-19 15:43:00,
2013-01-19 10:48:00,41.4,28.6,29.97,NW,315,3.4,3.4,60,0.00,,,0.00,WUHU216HW,2013-01-19 15:48:00,
2013-01-19 10:53:00,41.8,28.9,29.96,NE,45,1.6,3.4,60,0.00,,,0.00,WUHU216HW,2013-01-19 15:53:00,
2013-01-19 10:58:00,42.1,28.4,29.96,WNW,293,3.4,3.4,58,0.00,,,0.00,WUHU216HW,2013-01-19 15:58:00,
2013-01-19 11:03:00,42.1,28.4,29.96,NNW,338,4.0,4.0,58,0.00,,,0.00,WUHU216HW,2013-01-19 16:03:00,
2013-01-19 11:08:00,42.5,28.3,29.96,WSW,248,3.6,4.0,57,0.00,,,0.00,WUHU216HW,2013-01-19 16:08:00,
2013-01-19 11:13:00,42.7,28.9,29.96,South,180,1.1,4.0,58,0.00,,,0.00,WUHU216HW,2013-01-19 16:13:00,
2013-01-19 11:18:00,42.7,28.5,29.96,West,270,3.4,4.5,57,0.00,,,0.00,WUHU216HW,2013-01-19 16:18:00,
2013-01-19 11:23:00,42.8,28.6,29.95,West,270,4.0,4.5,57,0.00,,,0.00,WUHU216HW,2013-01-19 16:23:00,
2013-01-19 11:28:00,43.4,29.5,29.95,NW,315,2.9,4.0,58,0.00,,,0.00,WUHU216HW,2013-01-19 16:28:00,
2013-01-19 11:33:00,43.7,29.4,29.95,NW,315,1.8,3.4,57,0.00,,,0.00,WUHU216HW,2013-01-19 16:33:00,
2013-01-19 11:38:00,44.3,29.5,29.94,NNW,338,0.9,4.7,56,0.00,,,0.00,WUHU216HW,2013-01-19 16:38:00,
2013-01-19 11:43:00,44.3,29.1,29.93,WSW,248,4.0,4.7,55,0.00,,,0.00,WUHU216HW,2013-01-19 16:43:00,
2013-01-19 11:48:00,43.9,28.7,29.93,NW,315,1.3,4.0,55,0.00,,,0.00,WUHU216HW,2013-01-19 16:48:00,
2013-01-19 11:53:00,43.7,28.6,29.93,West,270,3.8,4.0,55,0.00,,,0.00,WUHU216HW,2013-01-19 16:53:00,
2013-01-19 11:58:00,43.9,28.7,29.93,West,270,2.5,4.0,55,0.00,,,0.00,WUHU216HW,2013-01-19 16:58:00,
2013-01-19 12:03:00,44.3,29.5,29.92,SE,135,0.9,3.1,56,0.00,,,0.00,WUHU216HW,2013-01-19 17:03:00,
2013-01-19 12:08:00,45.0,30.3,29.91,West,270,2.2,4.0,56,0.00,,,0.00,WUHU216HW,2013-01-19 17:08:00,
2013-01-19 12:13:00,45.5,30.2,29.91,NW,315,2.9,4.0,55,0.00,,,0.00,WUHU216HW,2013-01-19 17:13:00,
2013-01-19 12:18:00,45.7,30.4,29.90,NW,315,3.4,3.4,55,0.00,,,0.00,WUHU216HW,2013-01-19 17:18:00,
2013-01-19 12:23:00,45.4,29.6,29.90,West,270,2.5,3.4,54,0.00,,,0.00,WUHU216HW,2013-01-19 17:23:00,
2013-01-19 12:28:00,45.2,29.4,29.89,NNW,338,2.9,3.1,54,0.00,,,0.00,WUHU216HW,2013-01-19 17:28:00,
2013-01-19 12:33:00,45.5,29.8,29.89,WSW,248,4.0,4.0,54,0.00,,,0.00,WUHU216HW,2013-01-19 17:33:00,
2013-01-19 12:38:00,45.9,30.2,29.88,WSW,248,4.3,4.3,54,0.00,,,0.00,WUHU216HW,2013-01-19 17:38:00,
2013-01-19 12:43:00,45.9,29.7,29.88,ESE,113,2.9,4.5,53,0.00,,,0.00,WUHU216HW,2013-01-19 17:43:00,
2013-01-19 12:48:00,45.7,29.5,29.88,West,270,2.5,4.5,53,0.00,,,0.00,WUHU216HW,2013-01-19 17:48:00,
2013-01-19 12:54:00,45.4,29.2,29.88,WNW,293,2.7,4.0,53,0.00,,,0.00,WUHU216HW,2013-01-19 17:54:00,
2013-01-19 12:59:00,45.2,29.4,29.87,NE,45,4.0,4.0,54,0.00,,,0.00,WUHU216HW,2013-01-19 17:59:00,
2013-01-19 13:04:00,45.4,29.6,29.86,NW,315,3.1,4.0,54,0.00,,,0.00,WUHU216HW,2013-01-19 18:04:00,
2013-01-19 13:10:00,45.4,29.2,29.86,NE,45,3.4,4.7,53,0.00,,,0.00,WUHU216HW,2013-01-19 18:10:00,
2013-01-19 13:15:00,45.7,29.5,29.85,SW,225,4.3,6.9,53,0.00,,,0.00,WUHU216HW,2013-01-19 18:15:00,
2013-01-19 13:20:00,45.7,30.0,29.85,North,0,2.2,6.9,54,0.00,,,0.00,WUHU216HW,2013-01-19 18:20:00,
2013-01-19 13:25:00,45.5,29.8,29.85,WNW,293,4.7,4.7,54,0.00,,,0.00,WUHU216HW,2013-01-19 18:25:00,
2013-01-19 13:31:00,45.7,30.0,29.85,NW,315,1.8,4.7,54,0.00,,,0.00,WUHU216HW,2013-01-19 18:31:00,
2013-01-19 13:36:00,45.7,29.5,29.84,West,270,2.5,3.4,53,0.00,,,0.00,WUHU216HW,2013-01-19 18:36:00,
2013-01-19 13:41:00,45.9,29.7,29.84,WNW,293,2.7,4.0,53,0.00,,,0.00,WUHU216HW,2013-01-19 18:41:00,
2013-01-19 13:46:00,45.7,29.5,29.84,NW,315,4.0,4.0,53,0.00,,,0.00,WUHU216HW,2013-01-19 18:46:00,
2013-01-19 13:51:00,45.7,29.5,29.83,NW,315,1.8,4.0,53,0.00,,,0.00,WUHU216HW,2013-01-19 18:51:00,
2013-01-19 13:57:00,45.7,29.5,29.83,WNW,293,4.3,4.7,53,0.00,,,0.00,WUHU216HW,2013-01-19 18:57:00,
2013-01-19 14:02:00,45.7,29.5,29.83,WNW,293,1.8,4.7,53,0.00,,,0.00,WUHU216HW,2013-01-19 19:02:00,
2013-01-19 14:07:00,45.7,30.0,29.83,West,270,2.0,3.1,54,0.00,,,0.00,WUHU216HW,2013-01-19 19:07:00,
2013-01-19 14:12:00,46.1,30.2,29.83,WNW,293,2.7,2.7,54,0.00,,,0.00,WUHU216HW,2013-01-19 19:12:00,
2013-01-19 14:17:00,46.3,30.0,29.82,WSW,248,2.5,4.5,53,0.00,,,0.00,WUHU216HW,2013-01-19 19:17:00,
2013-01-19 14:22:00,46.3,30.0,29.82,NNE,23,2.0,4.5,53,0.00,,,0.00,WUHU216HW,2013-01-19 19:22:00,
2013-01-19 14:27:00,47.0,30.7,29.82,NW,315,4.9,4.9,53,0.00,,,0.00,WUHU216HW,2013-01-19 19:27:00,
2013-01-19 14:32:00,47.7,30.9,29.82,WSW,248,1.6,4.9,52,0.00,,,0.00,WUHU216HW,2013-01-19 19:32:00,
2013-01-19 14:37:00,48.4,31.1,29.82,ESE,113,2.5,3.6,51,0.00,,,0.00,WUHU216HW,2013-01-19 19:37:00,
2013-01-19 14:42:00,48.8,31.0,29.82,SSW,203,2.0,4.7,50,0.00,,,0.00,WUHU216HW,2013-01-19 19:42:00,
2013-01-19 14:47:00,48.6,30.8,29.81,ENE,68,2.5,4.7,50,0.00,,,0.00,WUHU216HW,2013-01-19 19:47:00,
2013-01-19 14:53:00,48.4,31.1,29.81,NW,315,2.2,4.3,51,0.00,,,0.00,WUHU216HW,2013-01-19 19:53:00,
2013-01-19 14:58:00,48.6,31.2,29.81,SW,225,2.7,5.1,51,0.00,,,0.00,WUHU216HW,2013-01-19 19:58:00,
2013-01-19 15:03:00,49.0,31.6,29.80,SSE,158,1.1,5.1,51,0.00,,,0.00,WUHU216HW,2013-01-19 20:03:00,
2013-01-19 15:08:00,48.8,31.0,29.80,South,180,3.4,3.4,50,0.00,,,0.00,WUHU216HW,2013-01-19 20:08:00,
2013-01-19 15:13:00,48.4,31.1,29.80,SSW,203,4.0,4.0,51,0.00,,,0.00,WUHU216HW,2013-01-19 20:13:00,
2013-01-19 15:18:00,48.1,30.7,29.79,NW,315,1.8,4.0,51,0.00,,,0.00,WUHU216HW,2013-01-19 20:18:00,
2013-01-19 15:23:00,48.1,30.7,29.78,WNW,293,1.8,4.9,51,0.00,,,0.00,WUHU216HW,2013-01-19 20:23:00,
2013-01-19 15:28:00,48.1,30.7,29.78,West,270,2.7,4.9,51,0.00,,,0.00,WUHU216HW,2013-01-19 20:28:00,
2013-01-19 15:33:00,48.2,30.9,29.78,NW,315,1.8,4.3,51,0.00,,,0.00,WUHU216HW,2013-01-19 20:33:00,
2013-01-19 15:38:00,47.9,30.6,29.78,WNW,293,6.3,6.3,51,0.00,,,0.00,WUHU216HW,2013-01-19 20:38:00,
2013-01-19 15:43:00,47.7,30.4,29.78,WNW,293,2.2,6.3,51,0.00,,,0.00,WUHU216HW,2013-01-19 20:43:00,
2013-01-19 15:48:00,47.5,30.3,29.78,SSE,158,4.3,5.4,51,0.00,,,0.00,WUHU216HW,2013-01-19 20:48:00,
2013-01-19 15:54:00,47.2,30.3,29.78,NW,315,1.8,4.3,52,0.00,,,0.00,WUHU216HW,2013-01-19 20:54:00,
2013-01-19 15:59:00,47.2,30.3,29.77,SW,225,0.7,2.7,52,0.00,,,0.00,WUHU216HW,2013-01-19 20:59:00,
2013-01-19 16:04:00,47.0,30.7,29.77,SSW,203,1.6,2.7,53,0.00,,,0.00,WUHU216HW,2013-01-19 21:04:00,
2013-01-19 16:09:00,46.8,30.5,29.76,West,270,2.7,2.7,53,0.00,,,0.00,WUHU216HW,2013-01-19 21:09:00,
2013-01-19 16:14:00,46.6,30.3,29.76,South,180,3.8,3.8,53,0.00,,,0.00,WUHU216HW,2013-01-19 21:14:00,
2013-01-19 16:19:00,46.6,30.3,29.76,WNW,293,3.6,4.0,53,0.00,,,0.00,WUHU216HW,2013-01-19 21:19:00,
2013-01-19 16:24:00,46.4,30.2,29.76,ESE,113,3.4,4.0,53,0.00,,,0.00,WUHU216HW,2013-01-19 21:24:00,
2013-01-19 16:29:00,46.4,30.6,29.76,NW,315,0.4,3.8,54,0.00,,,0.00,WUHU216HW,2013-01-19 21:29:00,
2013-01-19 16:35:00,46.4,30.6,29.77,West,270,4.0,4.0,54,0.00,,,0.00,WUHU216HW,2013-01-19 21:35:00,
2013-01-19 16:40:00,46.4,30.6,29.77,WNW,293,0.4,4.0,54,0.00,,,0.00,WUHU216HW,2013-01-19 21:40:00,
2013-01-19 16:45:00,46.3,30.4,29.77,West,270,1.6,3.1,54,0.00,,,0.00,WUHU216HW,2013-01-19 21:45:00,
2013-01-19 16:50:00,46.1,30.7,29.78,NW,315,2.2,3.1,55,0.00,,,0.00,WUHU216HW,2013-01-19 21:50:00,
2013-01-19 16:55:00,45.9,30.6,29.78,SW,225,2.0,2.5,55,0.00,,,0.00,WUHU216HW,2013-01-19 21:55:00,
2013-01-19 17:00:00,45.9,30.6,29.78,NW,315,1.8,2.9,55,0.00,,,0.00,WUHU216HW,2013-01-19 22:00:00,
2013-01-19 17:04:00,45.7,30.4,29.77,WNW,293,2.5,2.5,55,0.00,,,0.00,WUHU216HW,2013-01-19 22:04:00,
2013-01-19 17:06:00,45.7,30.4,29.77,WNW,293,2.5,2.9,55,0.00,,,0.00,WUHU216HW,2013-01-19 22:06:00,
2013-01-19 17:12:00,45.7,30.4,29.77,WNW,293,2.5,2.5,55,0.00,,,0.00,WUHU216HW,2013-01-19 22:12:00,
2013-01-19 17:34:00,45.2,30.3,29.77,West,270,1.8,1.8,56,0.00,,,0.00,WUHU216HW,2013-01-19 22:34:00,
2013-01-19 17:39:00,45.2,30.3,29.77,WSW,248,0.9,3.4,56,0.00,,,0.00,WUHU216HW,2013-01-19 22:39:00,
2013-01-19 17:44:00,45.0,30.3,29.76,SSW,203,1.1,3.4,56,0.00,,,0.00,WUHU216HW,2013-01-19 22:44:00,
2013-01-19 17:49:00,45.0,30.7,29.75,South,180,2.2,4.3,57,0.00,,,0.00,WUHU216HW,2013-01-19 22:49:00,
2013-01-19 17:54:00,45.0,30.7,29.75,NNE,23,4.0,4.0,57,0.00,,,0.00,WUHU216HW,2013-01-19 22:54:00,
2013-01-19 17:59:00,45.0,30.7,29.75,ENE,68,3.8,4.0,57,0.00,,,0.00,WUHU216HW,2013-01-19 22:59:00,
2013-01-19 18:04:00,44.8,30.5,29.75,NNE,23,1.8,3.8,57,0.00,,,0.00,WUHU216HW,2013-01-19 23:04:00,
2013-01-19 18:09:00,44.8,30.5,29.75,SW,225,3.6,4.0,57,0.00,,,0.00,WUHU216HW,2013-01-19 23:09:00,
2013-01-19 18:14:00,44.6,30.3,29.74,WSW,248,1.8,4.0,57,0.00,,,0.00,WUHU216HW,2013-01-19 23:14:00,
2013-01-19 18:19:00,44.5,30.2,29.73,WSW,248,2.5,2.9,57,0.00,,,0.00,WUHU216HW,2013-01-19 23:19:00,
2013-01-19 18:24:00,44.5,30.2,29.72,NNE,23,1.8,3.6,57,0.00,,,0.00,WUHU216HW,2013-01-19 23:24:00,
2013-01-19 18:29:00,44.3,30.4,29.71,South,180,2.2,2.2,58,0.00,,,0.00,WUHU216HW,2013-01-19 23:29:00,
2013-01-19 18:30:00,44.3,30.4,29.71,South,180,2.2,3.6,58,0.00,,,0.00,WUHU216HW,2013-01-19 23:30:00,
2013-01-19 18:35:00,44.3,30.4,29.71,South,180,2.2,3.6,58,0.00,,,0.00,WUHU216HW,2013-01-19 23:35:00,
2013-01-19 18:59:00,43.9,30.5,29.73,WNW,293,0.7,0.7,59,0.00,,,0.00,WUHU216HW,2013-01-19 23:59:00,
2013-01-19 19:04:00,43.9,30.5,29.73,WSW,248,1.6,2.5,59,0.00,,,0.00,WUHU216HW,2013-01-20 00:04:00,
2013-01-19 19:09:00,43.7,30.3,29.73,NNW,338,1.8,3.1,59,0.00,,,0.00,WUHU216HW,2013-01-20 00:09:00,
2013-01-19 19:14:00,43.7,30.3,29.73,West,270,1.3,3.6,59,0.00,,,0.00,WUHU216HW,2013-01-20 00:14:00,
2013-01-19 19:19:00,43.6,30.2,29.73,West,270,1.3,3.6,59,0.00,,,0.00,WUHU216HW,2013-01-20 00:19:00,
2013-01-19 19:24:00,43.6,30.2,29.73,WSW,248,1.3,3.4,59,0.00,,,0.00,WUHU216HW,2013-01-20 00:24:00,
2013-01-19 19:30:00,43.6,30.2,29.72,SE,135,3.8,3.8,59,0.00,,,0.00,WUHU216HW,2013-01-20 00:30:00,
2013-01-19 19:35:00,43.4,30.4,29.72,SSE,158,2.0,3.8,60,0.00,,,0.00,WUHU216HW,2013-01-20 00:35:00,
2013-01-19 19:40:00,43.4,30.4,29.72,South,180,1.8,2.2,60,0.00,,,0.00,WUHU216HW,2013-01-20 00:40:00,
2013-01-19 19:45:00,43.2,30.2,29.71,NNW,338,2.5,2.7,60,0.00,,,0.00,WUHU216HW,2013-01-20 00:45:00,
2013-01-19 19:50:00,43.0,30.4,29.71,SE,135,3.1,3.1,61,0.00,,,0.00,WUHU216HW,2013-01-20 00:50:00,
2013-01-19 19:55:00,43.0,30.4,29.71,NW,315,3.4,3.4,61,0.00,,,0.00,WUHU216HW,2013-01-20 00:55:00,
2013-01-19 20:00:00,42.8,30.2,29.70,NNW,338,2.0,3.4,61,0.00,,,0.00,WUHU216HW,2013-01-20 01:00:00,
2013-01-19 20:05:00,42.8,30.7,29.70,NE,45,4.7,4.7,62,0.00,,,0.00,WUHU216HW,2013-01-20 01:05:00,
2013-01-19 20:10:00,42.8,30.2,29.70,WSW,248,2.2,4.7,61,0.00,,,0.00,WUHU216HW,2013-01-20 01:10:00,
2013-01-19 20:15:00,42.7,30.5,29.69,SE,135,2.0,3.4,62,0.00,,,0.00,WUHU216HW,2013-01-20 01:15:00,
2013-01-19 20:21:00,42.5,30.3,29.69,SSW,203,2.0,3.4,62,0.00,,,0.00,WUHU216HW,2013-01-20 01:21:00,
2013-01-19 20:26:00,42.5,30.3,29.69,NNW,338,1.3,3.4,62,0.00,,,0.00,WUHU216HW,2013-01-20 01:26:00,
2013-01-19 20:32:00,42.5,30.7,29.68,West,270,2.5,2.7,63,0.00,,,0.00,WUHU216HW,2013-01-20 01:32:00,
2013-01-19 20:37:00,42.3,30.6,29.68,WNW,293,2.2,2.5,63,0.00,,,0.00,WUHU216HW,2013-01-20 01:37:00,
2013-01-19 20:42:00,42.3,30.6,29.67,SW,225,1.8,2.5,63,0.00,,,0.00,WUHU216HW,2013-01-20 01:42:00,
2013-01-19 20:47:00,42.1,30.4,29.67,NNW,338,3.4,3.4,63,0.00,,,0.00,WUHU216HW,2013-01-20 01:47:00,
2013-01-19 20:53:00,42.1,30.4,29.67,NNE,23,2.7,3.4,63,0.00,,,0.00,WUHU216HW,2013-01-20 01:53:00,
2013-01-19 20:58:00,42.1,30.4,29.67,WSW,248,3.1,3.4,63,0.00,,,0.00,WUHU216HW,2013-01-20 01:58:00,
2013-01-19 21:04:00,42.1,30.4,29.67,West,270,1.3,3.4,63,0.00,,,0.00,WUHU216HW,2013-01-20 02:04:00,
2013-01-19 21:09:00,42.1,30.8,29.66,WSW,248,1.1,2.5,64,0.00,,,0.00,WUHU216HW,2013-01-20 02:09:00,
2013-01-19 21:14:00,42.1,30.8,29.66,WSW,248,1.3,2.5,64,0.00,,,0.00,WUHU216HW,2013-01-20 02:14:00,
2013-01-19 21:20:00,41.9,30.6,29.65,WNW,293,2.2,2.2,64,0.00,,,0.00,WUHU216HW,2013-01-20 02:20:00,
2013-01-19 21:25:00,41.9,30.6,29.66,WNW,293,0.9,3.1,64,0.00,,,0.00,WUHU216HW,2013-01-20 02:25:00,
2013-01-19 21:30:00,41.9,30.6,29.66,West,270,0.9,3.1,64,0.00,,,0.00,WUHU216HW,2013-01-20 02:30:00,
2013-01-19 21:35:00,41.8,30.4,29.66,SSW,203,1.8,2.9,64,0.00,,,0.00,WUHU216HW,2013-01-20 02:35:00,
2013-01-19 21:40:00,41.8,30.9,29.66,SSE,158,1.8,2.0,65,0.00,,,0.00,WUHU216HW,2013-01-20 02:40:00,
2013-01-19 21:45:00,41.8,30.9,29.66,West,270,1.6,4.0,65,0.00,,,0.00,WUHU216HW,2013-01-20 02:45:00,
2013-01-19 21:51:00,41.6,30.7,29.66,WNW,293,1.3,4.0,65,0.00,,,0.00,WUHU216HW,2013-01-20 02:51:00,
2013-01-19 21:56:00,41.4,30.5,29.66,West,270,1.8,2.7,65,0.00,,,0.00,WUHU216HW,2013-01-20 02:56:00,
2013-01-19 22:01:00,41.4,30.5,29.65,WNW,293,0.9,2.5,65,0.00,,,0.00,WUHU216HW,2013-01-20 03:01:00,
2013-01-19 22:07:00,41.4,30.9,29.64,SSW,203,0.4,2.2,66,0.00,,,0.00,WUHU216HW,2013-01-20 03:07:00,
2013-01-19 22:12:00,41.2,30.7,29.64,WNW,293,1.8,2.7,66,0.00,,,0.00,WUHU216HW,2013-01-20 03:12:00,
2013-01-19 22:17:00,41.2,30.7,29.64,WSW,248,0.7,2.7,66,0.00,,,0.00,WUHU216HW,2013-01-20 03:17:00,
2013-01-19 22:22:00,41.4,30.9,29.64,West,270,0.9,2.5,66,0.00,,,0.00,WUHU216HW,2013-01-20 03:22:00,
2013-01-19 22:27:00,41.4,31.2,29.64,SSW,203,2.5,2.5,67,0.00,,,0.00,WUHU216HW,2013-01-20 03:27:00,
2013-01-19 22:32:00,41.4,31.2,29.63,NW,315,2.2,3.8,67,0.00,,,0.00,WUHU216HW,2013-01-20 03:32:00,
2013-01-19 22:37:00,41.6,31.4,29.63,WSW,248,1.8,3.8,67,0.00,,,0.00,WUHU216HW,2013-01-20 03:37:00,
2013-01-19 22:43:00,41.8,31.6,29.63,WNW,293,1.8,3.4,67,0.00,,,0.00,WUHU216HW,2013-01-20 03:43:00,
2013-01-19 22:48:00,41.9,31.8,29.63,WSW,248,2.7,3.4,67,0.00,,,0.00,WUHU216HW,2013-01-20 03:48:00,
2013-01-19 22:53:00,42.3,32.1,29.62,SW,225,1.8,5.1,67,0.00,,,0.00,WUHU216HW,2013-01-20 03:53:00,
2013-01-19 22:58:00,42.5,32.3,29.62,SSW,203,1.3,5.1,67,0.00,,,0.00,WUHU216HW,2013-01-20 03:58:00,
2013-01-19 23:03:00,42.7,32.0,29.61,WNW,293,2.0,3.6,66,0.00,,,0.00,WUHU216HW,2013-01-20 04:03:00,
2013-01-19 23:08:00,42.8,32.2,29.61,NW,315,4.7,4.7,66,0.00,,,0.00,WUHU216HW,2013-01-20 04:08:00,
2013-01-19 23:13:00,42.8,32.2,29.61,WNW,293,0.7,5.8,66,0.00,,,0.00,WUHU216HW,2013-01-20 04:13:00,
2013-01-19 23:18:00,42.7,32.0,29.61,NNW,338,2.0,5.8,66,0.00,,,0.00,WUHU216HW,2013-01-20 04:18:00,
2013-01-19 23:23:00,42.5,32.0,29.61,NW,315,1.8,4.7,66,0.00,,,0.00,WUHU216HW,2013-01-20 04:23:00,
2013-01-19 23:28:00,42.5,32.0,29.61,NNW,338,2.2,4.7,66,0.00,,,0.00,WUHU216HW,2013-01-20 04:28:00,
2013-01-19 23:34:00,42.5,32.0,29.60,WNW,293,3.4,4.0,66,0.00,,,0.00,WUHU216HW,2013-01-20 04:34:00,
2013-01-19 23:39:00,42.5,32.0,29.60,NW,315,0.7,4.0,66,0.00,,,0.00,WUHU216HW,2013-01-20 04:39:00,
2013-01-19 23:44:00,42.7,32.5,29.60,West,270,2.5,5.4,67,0.00,,,0.00,WUHU216HW,2013-01-20 04:44:00,
2013-01-19 23:49:00,42.8,32.7,29.60,NW,315,3.4,5.4,67,0.00,,,0.00,WUHU216HW,2013-01-20 04:49:00,
2013-01-19 23:54:00,43.0,32.9,29.60,WNW,293,1.8,4.9,67,0.00,,,0.00,WUHU216HW,2013-01-20 04:54:00,
2013-01-19 23:59:00,43.0,33.2,29.60,NW,315,0.4,4.9,68,0.00,,,0.00,WUHU216HW,2013-01-20 04:59:00,